עמוד ראשי
METAR-TAF:

שדות תעופה :

זלצבורג, אוסטריה

קו רוחב: 47-48N, קו אורך: 013-00E, גובה: 430מטר

תצפית מזג אוויר נוכחית

הדו"ח נערך לפני 29דקות, בשעה 12:50 UTC
רוח 3קשר עם כיוונים משתנים
טמפרטורת 26 צלסיוס
לחות 45%
לחץ 1018 hPa
ראות 10 קילומטר או יותר
מעט עננים בגובה 5000רגל

METAR: LOWS 011250Z VRB03KT 9999 FEW050 26/13 Q1018 NOSIG

זמן: 15:19 (13:19 UTC)

תחזית

הדו"ח נערך לפני 2 שעות ו 4דקות, בשעה 11:15 UTC
תחזית בתוקף מ 01 ב 12 UTC עד 02 ב 12 UTC
רוח 6קשר מכיוון צפון/צפון-מזרח
ראות 10 קילומטר או יותר
מעט עננים בגובה 5000רגל
יעשה מ
01 ב 16 UTC עד 01 ב 18 UTC
רוח 5קשר מכיוון דרום/דרום-מזרח
ראות 10 קילומטר או יותר
ללא עננים שבסיסם נמוך מ 5000 רגל או קומולונימבוס
יעשה מ
02 ב 08 UTC עד 02 ב 10 UTC
רוח 5קשר מכיוון צפון/צפון-מזרח
ראות 10 קילומטר או יותר
מעט עננים בגובה 5000רגל
עננים פזורים בגובה 12000רגל

TAF: LOWS 011115Z 0112/0212 03006KT 9999 FEW050 TX25/0212Z TN19/0200Z BECMG 0116/0118 15005KT CAVOK BECMG 0208/0210 03005KT 9999 FEW050 SCT120

METAR-TAF

תצפיות ותחזיות מזג אוויר לגבי יותר מ- 4,000 שדות תעופה ברחבי העולם. דוחות METAR ו- TAF.

התחנות הזמינות מסומנות בנקודות צהובות ואדומות על גבי המפה.

העבר את העכבר לנקודה הצבעונית על מנת לראות את שם התחנה.

לאחר מכן, לחץ כדי לראות את תוכן ואת תחזיות מזג האוויר.

כדי לשנות את המפה: לחץ על הכפתורים הירוקים עם הפלוס השחור כדי להתקרב; על הכפתור הירוק עם המקף כדי להתרחק; או בחיצים הירוקים למפות סמוכות.


METAR-TAF: